Terminal Aerodrome Forecast
Issued by NWS Newport/Morehead City, NC

Home | Current Version | Previous Version | Graphics & Text | Print | Product List | Glossary On
Versions: 1 2 3 4 5 6 7 8 9 10 11 12 13 14 15 16
211
FTUS42 KMHX 281730
TAFEWN
TAF
KEWN 281730Z 2818/2918 16006KT P6SM VCTS SCT030CB BKN040
     FM290300 15005KT P6SM BKN100
     FM290800 VRB04KT 4SM BR BKN020
     FM291300 VRB03KT P6SM BKN110=

USA.gov is the U.S. government's official web portal to all federal, state and local government web resources and services.